sensor_id;sensor_type;location;lat;lon;timestamp;P1;durP1;ratioP1;P2;durP2;ratioP2
5587;SDS011;2816;49.778;9.986;2024-02-21T00:01:37;14.27;;;4.83;;
5587;SDS011;2816;49.778;9.986;2024-02-21T00:04:04;12.00;;;4.30;;
5587;SDS011;2816;49.778;9.986;2024-02-21T00:06:31;9.87;;;4.00;;
5587;SDS011;2816;49.778;9.986;2024-02-21T00:08:57;23.13;;;4.40;;
5587;SDS011;2816;49.778;9.986;2024-02-21T00:11:26;13.97;;;4.30;;
5587;SDS011;2816;49.778;9.986;2024-02-21T00:13:53;9.73;;;3.93;;
5587;SDS011;2816;49.778;9.986;2024-02-21T00:16:19;14.33;;;5.07;;
5587;SDS011;2816;49.778;9.986;2024-02-21T00:18:47;10.67;;;4.10;;
5587;SDS011;2816;49.778;9.986;2024-02-21T00:21:14;13.80;;;4.33;;
5587;SDS011;2816;49.778;9.986;2024-02-21T00:23:43;12.27;;;3.67;;
5587;SDS011;2816;49.778;9.986;2024-02-21T00:26:10;20.07;;;3.97;;
5587;SDS011;2816;49.778;9.986;2024-02-21T00:28:39;10.90;;;4.23;;
5587;SDS011;2816;49.778;9.986;2024-02-21T00:31:05;19.43;;;4.20;;
5587;SDS011;2816;49.778;9.986;2024-02-21T00:33:32;11.27;;;4.00;;
5587;SDS011;2816;49.778;9.986;2024-02-21T00:35:59;20.30;;;5.30;;
5587;SDS011;2816;49.778;9.986;2024-02-21T00:38:26;16.50;;;3.97;;
5587;SDS011;2816;49.778;9.986;2024-02-21T00:40:53;9.20;;;3.20;;
5587;SDS011;2816;49.778;9.986;2024-02-21T00:43:20;13.40;;;3.90;;
5587;SDS011;2816;49.778;9.986;2024-02-21T00:45:50;12.70;;;3.90;;
5587;SDS011;2816;49.778;9.986;2024-02-21T00:48:16;11.03;;;3.90;;
5587;SDS011;2816;49.778;9.986;2024-02-21T00:50:43;9.70;;;3.30;;
5587;SDS011;2816;49.778;9.986;2024-02-21T00:53:10;18.13;;;4.97;;
5587;SDS011;2816;49.778;9.986;2024-02-21T00:55:37;17.07;;;4.40;;
5587;SDS011;2816;49.778;9.986;2024-02-21T00:58:05;12.57;;;4.87;;
5587;SDS011;2816;49.778;9.986;2024-02-21T01:00:32;12.40;;;3.80;;
5587;SDS011;2816;49.778;9.986;2024-02-21T01:03:00;10.07;;;3.87;;
5587;SDS011;2816;49.778;9.986;2024-02-21T01:05:28;16.40;;;4.97;;
5587;SDS011;2816;49.778;9.986;2024-02-21T01:07:55;9.73;;;4.00;;
5587;SDS011;2816;49.778;9.986;2024-02-21T01:10:22;14.40;;;3.90;;
5587;SDS011;2816;49.778;9.986;2024-02-21T01:12:49;8.83;;;3.70;;
5587;SDS011;2816;49.778;9.986;2024-02-21T01:15:15;17.07;;;4.97;;
5587;SDS011;2816;49.778;9.986;2024-02-21T01:17:44;15.33;;;4.37;;
5587;SDS011;2816;49.778;9.986;2024-02-21T01:20:14;16.33;;;4.67;;
5587;SDS011;2816;49.778;9.986;2024-02-21T01:22:41;8.43;;;3.50;;
5587;SDS011;2816;49.778;9.986;2024-02-21T01:25:08;12.10;;;4.13;;
5587;SDS011;2816;49.778;9.986;2024-02-21T01:27:35;11.80;;;3.70;;
5587;SDS011;2816;49.778;9.986;2024-02-21T01:30:02;18.60;;;5.40;;
5587;SDS011;2816;49.778;9.986;2024-02-21T01:32:29;14.90;;;4.67;;
5587;SDS011;2816;49.778;9.986;2024-02-21T01:34:56;12.40;;;4.20;;
5587;SDS011;2816;49.778;9.986;2024-02-21T01:37:25;16.20;;;4.90;;
5587;SDS011;2816;49.778;9.986;2024-02-21T01:39:52;10.47;;;4.10;;
5587;SDS011;2816;49.778;9.986;2024-02-21T01:42:19;14.37;;;4.70;;
5587;SDS011;2816;49.778;9.986;2024-02-21T01:44:46;13.20;;;5.10;;
5587;SDS011;2816;49.778;9.986;2024-02-21T01:47:13;17.27;;;4.60;;
5587;SDS011;2816;49.778;9.986;2024-02-21T01:49:40;10.90;;;5.07;;
5587;SDS011;2816;49.778;9.986;2024-02-21T01:52:07;13.50;;;4.37;;
5587;SDS011;2816;49.778;9.986;2024-02-21T01:54:39;11.63;;;4.37;;
5587;SDS011;2816;49.778;9.986;2024-02-21T01:57:06;18.43;;;5.20;;
5587;SDS011;2816;49.778;9.986;2024-02-21T01:59:33;20.53;;;5.67;;
5587;SDS011;2816;49.778;9.986;2024-02-21T02:02:02;12.73;;;4.13;;
5587;SDS011;2816;49.778;9.986;2024-02-21T02:04:29;16.37;;;4.67;;
5587;SDS011;2816;49.778;9.986;2024-02-21T02:06:56;11.63;;;4.33;;
5587;SDS011;2816;49.778;9.986;2024-02-21T02:09:26;14.10;;;5.13;;
5587;SDS011;2816;49.778;9.986;2024-02-21T02:11:54;15.53;;;4.53;;
5587;SDS011;2816;49.778;9.986;2024-02-21T02:14:23;11.07;;;4.53;;
5587;SDS011;2816;49.778;9.986;2024-02-21T02:16:50;13.13;;;4.20;;
5587;SDS011;2816;49.778;9.986;2024-02-21T02:19:17;12.30;;;5.17;;
5587;SDS011;2816;49.778;9.986;2024-02-21T02:21:45;18.37;;;5.37;;
5587;SDS011;2816;49.778;9.986;2024-02-21T02:24:19;17.30;;;4.77;;
5587;SDS011;2816;49.778;9.986;2024-02-21T02:26:47;15.47;;;5.23;;
5587;SDS011;2816;49.778;9.986;2024-02-21T02:29:14;16.37;;;4.80;;
5587;SDS011;2816;49.778;9.986;2024-02-21T02:31:41;11.67;;;5.00;;
5587;SDS011;2816;49.778;9.986;2024-02-21T02:34:08;18.13;;;5.80;;
5587;SDS011;2816;49.778;9.986;2024-02-21T02:36:36;10.80;;;4.90;;
5587;SDS011;2816;49.778;9.986;2024-02-21T02:39:03;15.20;;;4.10;;
5587;SDS011;2816;49.778;9.986;2024-02-21T02:41:31;12.50;;;4.80;;
5587;SDS011;2816;49.778;9.986;2024-02-21T02:44:01;17.43;;;5.20;;
5587;SDS011;2816;49.778;9.986;2024-02-21T02:46:28;9.43;;;4.53;;
5587;SDS011;2816;49.778;9.986;2024-02-21T02:48:55;18.27;;;5.40;;
5587;SDS011;2816;49.778;9.986;2024-02-21T02:51:21;13.43;;;4.80;;
5587;SDS011;2816;49.778;9.986;2024-02-21T02:53:48;17.10;;;5.33;;
5587;SDS011;2816;49.778;9.986;2024-02-21T02:56:15;10.80;;;4.70;;
5587;SDS011;2816;49.778;9.986;2024-02-21T02:58:43;12.57;;;4.63;;
5587;SDS011;2816;49.778;9.986;2024-02-21T03:01:11;12.47;;;4.77;;
5587;SDS011;2816;49.778;9.986;2024-02-21T03:03:38;12.10;;;5.00;;
5587;SDS011;2816;49.778;9.986;2024-02-21T03:06:05;13.93;;;4.93;;
5587;SDS011;2816;49.778;9.986;2024-02-21T03:08:32;16.20;;;5.20;;
5587;SDS011;2816;49.778;9.986;2024-02-21T03:10:59;13.33;;;4.40;;
5587;SDS011;2816;49.778;9.986;2024-02-21T03:13:26;15.70;;;5.23;;
5587;SDS011;2816;49.778;9.986;2024-02-21T03:15:54;16.20;;;4.23;;
5587;SDS011;2816;49.778;9.986;2024-02-21T03:18:21;21.67;;;5.50;;
5587;SDS011;2816;49.778;9.986;2024-02-21T03:20:48;17.13;;;5.33;;
5587;SDS011;2816;49.778;9.986;2024-02-21T03:23:15;18.20;;;5.70;;
5587;SDS011;2816;49.778;9.986;2024-02-21T03:25:42;18.30;;;4.70;;
5587;SDS011;2816;49.778;9.986;2024-02-21T03:28:08;10.07;;;4.83;;
5587;SDS011;2816;49.778;9.986;2024-02-21T03:30:35;17.60;;;5.30;;
5587;SDS011;2816;49.778;9.986;2024-02-21T03:33:04;16.47;;;5.10;;
5587;SDS011;2816;49.778;9.986;2024-02-21T03:35:31;14.60;;;4.93;;
5587;SDS011;2816;49.778;9.986;2024-02-21T03:37:57;10.87;;;4.73;;
5587;SDS011;2816;49.778;9.986;2024-02-21T03:40:25;11.63;;;5.00;;
5587;SDS011;2816;49.778;9.986;2024-02-21T03:42:52;16.77;;;4.90;;
5587;SDS011;2816;49.778;9.986;2024-02-21T03:45:18;15.03;;;5.07;;
5587;SDS011;2816;49.778;9.986;2024-02-21T03:47:45;15.00;;;5.00;;
5587;SDS011;2816;49.778;9.986;2024-02-21T03:50:14;18.40;;;5.83;;
5587;SDS011;2816;49.778;9.986;2024-02-21T03:52:41;8.77;;;4.33;;
5587;SDS011;2816;49.778;9.986;2024-02-21T03:55:08;16.33;;;5.53;;
5587;SDS011;2816;49.778;9.986;2024-02-21T03:57:35;17.80;;;6.00;;
5587;SDS011;2816;49.778;9.986;2024-02-21T04:00:04;14.67;;;5.37;;
5587;SDS011;2816;49.778;9.986;2024-02-21T04:02:35;14.13;;;4.70;;
5587;SDS011;2816;49.778;9.986;2024-02-21T04:05:03;17.33;;;5.20;;
5587;SDS011;2816;49.778;9.986;2024-02-21T04:07:31;18.03;;;5.43;;
5587;SDS011;2816;49.778;9.986;2024-02-21T04:09:58;20.70;;;4.50;;
5587;SDS011;2816;49.778;9.986;2024-02-21T04:12:25;14.67;;;5.00;;
5587;SDS011;2816;49.778;9.986;2024-02-21T04:14:52;16.37;;;4.90;;
5587;SDS011;2816;49.778;9.986;2024-02-21T04:17:19;13.23;;;4.77;;
5587;SDS011;2816;49.778;9.986;2024-02-21T04:19:45;14.87;;;5.30;;
5587;SDS011;2816;49.778;9.986;2024-02-21T04:22:12;21.73;;;7.73;;
5587;SDS011;2816;49.778;9.986;2024-02-21T04:24:41;20.37;;;6.63;;
5587;SDS011;2816;49.778;9.986;2024-02-21T04:27:07;23.77;;;6.27;;
5587;SDS011;2816;49.778;9.986;2024-02-21T04:29:35;12.23;;;5.23;;
5587;SDS011;2816;49.778;9.986;2024-02-21T04:32:02;13.63;;;5.90;;
5587;SDS011;2816;49.778;9.986;2024-02-21T04:34:30;20.33;;;6.00;;
5587;SDS011;2816;49.778;9.986;2024-02-21T04:36:56;19.00;;;6.80;;
5587;SDS011;2816;49.778;9.986;2024-02-21T04:39:23;26.03;;;7.53;;
5587;SDS011;2816;49.778;9.986;2024-02-21T04:41:52;19.87;;;6.63;;
5587;SDS011;2816;49.778;9.986;2024-02-21T04:44:19;23.27;;;7.10;;
5587;SDS011;2816;49.778;9.986;2024-02-21T04:46:47;24.80;;;6.77;;
5587;SDS011;2816;49.778;9.986;2024-02-21T04:49:14;22.20;;;7.27;;
5587;SDS011;2816;49.778;9.986;2024-02-21T04:51:41;35.13;;;8.43;;
5587;SDS011;2816;49.778;9.986;2024-02-21T04:54:08;32.40;;;8.10;;
5587;SDS011;2816;49.778;9.986;2024-02-21T04:56:35;22.57;;;7.17;;
5587;SDS011;2816;49.778;9.986;2024-02-21T04:59:03;29.23;;;7.23;;
5587;SDS011;2816;49.778;9.986;2024-02-21T05:01:30;21.03;;;6.93;;
5587;SDS011;2816;49.778;9.986;2024-02-21T05:03:57;16.63;;;6.23;;
5587;SDS011;2816;49.778;9.986;2024-02-21T05:06:24;49.00;;;10.40;;
5587;SDS011;2816;49.778;9.986;2024-02-21T05:08:51;25.20;;;7.70;;
5587;SDS011;2816;49.778;9.986;2024-02-21T05:11:20;24.30;;;7.20;;
5587;SDS011;2816;49.778;9.986;2024-02-21T05:13:47;21.90;;;7.53;;
5587;SDS011;2816;49.778;9.986;2024-02-21T05:16:15;20.83;;;6.60;;
5587;SDS011;2816;49.778;9.986;2024-02-21T05:18:44;25.53;;;7.67;;
5587;SDS011;2816;49.778;9.986;2024-02-21T05:21:11;26.77;;;6.70;;
5587;SDS011;2816;49.778;9.986;2024-02-21T05:23:40;27.50;;;9.07;;
5587;SDS011;2816;49.778;9.986;2024-02-21T05:26:07;25.23;;;7.67;;
5587;SDS011;2816;49.778;9.986;2024-02-21T05:28:34;18.30;;;8.10;;
5587;SDS011;2816;49.778;9.986;2024-02-21T05:31:01;16.70;;;6.90;;
5587;SDS011;2816;49.778;9.986;2024-02-21T05:33:29;25.63;;;7.60;;
5587;SDS011;2816;49.778;9.986;2024-02-21T05:35:56;20.13;;;7.63;;
5587;SDS011;2816;49.778;9.986;2024-02-21T05:38:23;16.47;;;7.37;;
5587;SDS011;2816;49.778;9.986;2024-02-21T05:40:51;20.03;;;6.50;;
5587;SDS011;2816;49.778;9.986;2024-02-21T05:43:18;22.63;;;7.30;;
5587;SDS011;2816;49.778;9.986;2024-02-21T05:45:44;18.00;;;6.73;;
5587;SDS011;2816;49.778;9.986;2024-02-21T05:48:11;14.93;;;6.60;;
5587;SDS011;2816;49.778;9.986;2024-02-21T05:50:40;25.27;;;7.33;;
5587;SDS011;2816;49.778;9.986;2024-02-21T05:53:07;20.27;;;7.13;;
5587;SDS011;2816;49.778;9.986;2024-02-21T05:55:35;18.23;;;7.90;;
5587;SDS011;2816;49.778;9.986;2024-02-21T05:58:02;16.07;;;6.97;;
5587;SDS011;2816;49.778;9.986;2024-02-21T06:00:29;17.03;;;5.70;;
5587;SDS011;2816;49.778;9.986;2024-02-21T06:02:56;21.90;;;7.00;;
5587;SDS011;2816;49.778;9.986;2024-02-21T06:05:23;20.73;;;6.73;;
5587;SDS011;2816;49.778;9.986;2024-02-21T06:07:51;20.73;;;7.00;;
5587;SDS011;2816;49.778;9.986;2024-02-21T06:10:18;15.27;;;7.50;;
5587;SDS011;2816;49.778;9.986;2024-02-21T06:12:45;24.37;;;7.43;;
5587;SDS011;2816;49.778;9.986;2024-02-21T06:15:11;25.30;;;8.20;;
5587;SDS011;2816;49.778;9.986;2024-02-21T06:17:38;20.17;;;8.17;;
5587;SDS011;2816;49.778;9.986;2024-02-21T06:20:06;13.00;;;6.93;;
5587;SDS011;2816;49.778;9.986;2024-02-21T06:22:33;13.50;;;6.80;;
5587;SDS011;2816;49.778;9.986;2024-02-21T06:25:02;16.47;;;7.30;;
5587;SDS011;2816;49.778;9.986;2024-02-21T06:27:29;16.40;;;7.10;;
5587;SDS011;2816;49.778;9.986;2024-02-21T06:29:56;23.90;;;7.60;;
5587;SDS011;2816;49.778;9.986;2024-02-21T06:32:23;22.73;;;8.03;;
5587;SDS011;2816;49.778;9.986;2024-02-21T06:34:50;12.90;;;7.27;;
5587;SDS011;2816;49.778;9.986;2024-02-21T06:37:17;17.10;;;6.40;;
5587;SDS011;2816;49.778;9.986;2024-02-21T06:39:45;15.47;;;6.00;;
5587;SDS011;2816;49.778;9.986;2024-02-21T06:42:13;13.00;;;6.53;;
5587;SDS011;2816;49.778;9.986;2024-02-21T06:44:40;11.40;;;6.00;;
5587;SDS011;2816;49.778;9.986;2024-02-21T06:47:07;13.57;;;6.77;;
5587;SDS011;2816;49.778;9.986;2024-02-21T06:49:34;22.50;;;6.90;;
5587;SDS011;2816;49.778;9.986;2024-02-21T06:52:02;12.37;;;6.90;;
5587;SDS011;2816;49.778;9.986;2024-02-21T06:54:29;18.80;;;6.43;;
5587;SDS011;2816;49.778;9.986;2024-02-21T06:56:56;17.13;;;6.80;;
5587;SDS011;2816;49.778;9.986;2024-02-21T06:59:25;18.07;;;6.40;;
5587;SDS011;2816;49.778;9.986;2024-02-21T07:01:53;15.57;;;6.37;;
5587;SDS011;2816;49.778;9.986;2024-02-21T07:04:21;20.07;;;6.67;;
5587;SDS011;2816;49.778;9.986;2024-02-21T07:06:48;16.53;;;6.23;;
5587;SDS011;2816;49.778;9.986;2024-02-21T07:09:15;15.13;;;5.63;;
5587;SDS011;2816;49.778;9.986;2024-02-21T07:11:41;12.03;;;5.37;;
5587;SDS011;2816;49.778;9.986;2024-02-21T07:14:08;21.87;;;6.63;;
5587;SDS011;2816;49.778;9.986;2024-02-21T07:16:37;9.90;;;5.53;;
5587;SDS011;2816;49.778;9.986;2024-02-21T07:19:04;13.67;;;6.37;;
5587;SDS011;2816;49.778;9.986;2024-02-21T07:21:32;13.83;;;6.40;;
5587;SDS011;2816;49.778;9.986;2024-02-21T07:23:59;17.33;;;7.33;;
5587;SDS011;2816;49.778;9.986;2024-02-21T07:26:26;29.57;;;6.00;;
5587;SDS011;2816;49.778;9.986;2024-02-21T07:28:53;16.37;;;6.70;;
5587;SDS011;2816;49.778;9.986;2024-02-21T07:31:20;12.33;;;5.60;;
5587;SDS011;2816;49.778;9.986;2024-02-21T07:33:48;18.73;;;6.00;;
5587;SDS011;2816;49.778;9.986;2024-02-21T07:36:15;10.60;;;5.27;;
5587;SDS011;2816;49.778;9.986;2024-02-21T07:38:50;20.93;;;5.83;;
5587;SDS011;2816;49.778;9.986;2024-02-21T07:41:17;13.83;;;5.80;;
5587;SDS011;2816;49.778;9.986;2024-02-21T07:43:44;14.60;;;5.27;;
5587;SDS011;2816;49.778;9.986;2024-02-21T07:46:12;16.47;;;5.93;;
5587;SDS011;2816;49.778;9.986;2024-02-21T07:48:39;12.70;;;4.70;;
5587;SDS011;2816;49.778;9.986;2024-02-21T07:51:08;16.83;;;5.57;;
5587;SDS011;2816;49.778;9.986;2024-02-21T07:53:34;19.57;;;5.90;;
5587;SDS011;2816;49.778;9.986;2024-02-21T07:56:01;15.13;;;5.57;;
5587;SDS011;2816;49.778;9.986;2024-02-21T07:58:30;11.37;;;5.40;;
5587;SDS011;2816;49.778;9.986;2024-02-21T08:00:56;16.23;;;5.47;;
5587;SDS011;2816;49.778;9.986;2024-02-21T08:03:23;11.63;;;4.97;;
5587;SDS011;2816;49.778;9.986;2024-02-21T08:05:53;11.80;;;5.47;;
5587;SDS011;2816;49.778;9.986;2024-02-21T08:08:21;15.67;;;6.43;;
5587;SDS011;2816;49.778;9.986;2024-02-21T08:10:48;14.27;;;4.90;;
5587;SDS011;2816;49.778;9.986;2024-02-21T08:13:15;11.60;;;5.20;;
5587;SDS011;2816;49.778;9.986;2024-02-21T08:15:42;12.00;;;4.40;;
5587;SDS011;2816;49.778;9.986;2024-02-21T08:18:09;16.43;;;5.40;;
5587;SDS011;2816;49.778;9.986;2024-02-21T08:20:36;9.93;;;4.77;;
5587;SDS011;2816;49.778;9.986;2024-02-21T08:23:03;13.03;;;5.73;;
5587;SDS011;2816;49.778;9.986;2024-02-21T08:25:31;12.80;;;4.73;;
5587;SDS011;2816;49.778;9.986;2024-02-21T08:27:58;11.07;;;4.73;;
5587;SDS011;2816;49.778;9.986;2024-02-21T08:30:27;12.27;;;4.17;;
5587;SDS011;2816;49.778;9.986;2024-02-21T08:32:54;19.30;;;4.43;;
5587;SDS011;2816;49.778;9.986;2024-02-21T08:35:21;18.60;;;5.10;;
5587;SDS011;2816;49.778;9.986;2024-02-21T08:37:49;17.40;;;5.30;;
5587;SDS011;2816;49.778;9.986;2024-02-21T08:40:15;14.47;;;6.10;;
5587;SDS011;2816;49.778;9.986;2024-02-21T08:42:47;13.23;;;4.90;;
5587;SDS011;2816;49.778;9.986;2024-02-21T08:45:15;8.20;;;3.97;;
5587;SDS011;2816;49.778;9.986;2024-02-21T08:47:42;12.00;;;4.90;;
5587;SDS011;2816;49.778;9.986;2024-02-21T08:50:09;11.33;;;5.27;;
5587;SDS011;2816;49.778;9.986;2024-02-21T08:52:37;7.50;;;3.83;;
5587;SDS011;2816;49.778;9.986;2024-02-21T08:55:04;22.67;;;6.70;;
5587;SDS011;2816;49.778;9.986;2024-02-21T08:57:32;10.20;;;4.90;;
5587;SDS011;2816;49.778;9.986;2024-02-21T09:00:04;9.50;;;4.40;;
5587;SDS011;2816;49.778;9.986;2024-02-21T09:02:34;13.93;;;5.00;;
5587;SDS011;2816;49.778;9.986;2024-02-21T09:05:03;23.97;;;5.23;;
5587;SDS011;2816;49.778;9.986;2024-02-21T09:07:31;17.10;;;4.60;;
5587;SDS011;2816;49.778;9.986;2024-02-21T09:09:58;12.93;;;4.00;;
5587;SDS011;2816;49.778;9.986;2024-02-21T09:12:25;15.50;;;4.80;;
5587;SDS011;2816;49.778;9.986;2024-02-21T09:14:52;12.80;;;4.53;;
5587;SDS011;2816;49.778;9.986;2024-02-21T09:17:21;11.70;;;4.33;;
5587;SDS011;2816;49.778;9.986;2024-02-21T09:19:48;6.90;;;3.73;;
5587;SDS011;2816;49.778;9.986;2024-02-21T09:22:15;12.53;;;3.83;;
5587;SDS011;2816;49.778;9.986;2024-02-21T09:24:42;16.70;;;3.80;;
5587;SDS011;2816;49.778;9.986;2024-02-21T09:27:09;13.97;;;4.43;;
5587;SDS011;2816;49.778;9.986;2024-02-21T09:29:36;9.90;;;4.50;;
5587;SDS011;2816;49.778;9.986;2024-02-21T09:32:04;9.10;;;3.80;;
5587;SDS011;2816;49.778;9.986;2024-02-21T09:34:33;12.00;;;4.07;;
5587;SDS011;2816;49.778;9.986;2024-02-21T09:37:00;13.30;;;4.77;;
5587;SDS011;2816;49.778;9.986;2024-02-21T09:39:27;14.47;;;4.30;;
5587;SDS011;2816;49.778;9.986;2024-02-21T09:41:59;17.47;;;4.23;;
5587;SDS011;2816;49.778;9.986;2024-02-21T09:44:32;9.57;;;4.33;;
5587;SDS011;2816;49.778;9.986;2024-02-21T09:47:03;9.30;;;3.73;;
5587;SDS011;2816;49.778;9.986;2024-02-21T09:49:34;13.47;;;4.10;;
5587;SDS011;2816;49.778;9.986;2024-02-21T09:52:04;10.27;;;4.60;;
5587;SDS011;2816;49.778;9.986;2024-02-21T09:54:32;13.43;;;3.90;;
5587;SDS011;2816;49.778;9.986;2024-02-21T09:57:00;13.73;;;4.47;;
5587;SDS011;2816;49.778;9.986;2024-02-21T09:59:27;9.10;;;3.90;;
5587;SDS011;2816;49.778;9.986;2024-02-21T10:01:54;10.80;;;3.90;;
5587;SDS011;2816;49.778;9.986;2024-02-21T10:04:21;13.37;;;3.97;;
5587;SDS011;2816;49.778;9.986;2024-02-21T10:06:50;13.33;;;3.60;;
5587;SDS011;2816;49.778;9.986;2024-02-21T10:09:21;7.53;;;3.00;;
5587;SDS011;2816;49.778;9.986;2024-02-21T10:11:48;9.47;;;4.03;;
5587;SDS011;2816;49.778;9.986;2024-02-21T10:14:16;13.77;;;3.73;;
5587;SDS011;2816;49.778;9.986;2024-02-21T10:16:43;12.80;;;3.60;;
5587;SDS011;2816;49.778;9.986;2024-02-21T10:19:17;10.83;;;3.10;;
5587;SDS011;2816;49.778;9.986;2024-02-21T10:21:45;9.90;;;3.43;;
5587;SDS011;2816;49.778;9.986;2024-02-21T10:24:28;12.47;;;3.03;;
5587;SDS011;2816;49.778;9.986;2024-02-21T10:26:59;9.50;;;3.30;;
5587;SDS011;2816;49.778;9.986;2024-02-21T12:16:44;8.50;;;3.30;;
5587;SDS011;2816;49.778;9.986;2024-02-21T12:19:12;3.23;;;2.20;;
5587;SDS011;2816;49.778;9.986;2024-02-21T12:21:42;11.53;;;3.10;;
5587;SDS011;2816;49.778;9.986;2024-02-21T12:24:12;9.17;;;2.10;;
5587;SDS011;2816;49.778;9.986;2024-02-21T12:26:40;8.67;;;2.50;;
5587;SDS011;2816;49.778;9.986;2024-02-21T12:29:07;7.20;;;3.07;;
5587;SDS011;2816;49.778;9.986;2024-02-21T12:31:36;6.60;;;2.57;;
5587;SDS011;2816;49.778;9.986;2024-02-21T12:34:04;7.90;;;2.97;;
5587;SDS011;2816;49.778;9.986;2024-02-21T12:36:31;12.03;;;3.93;;
5587;SDS011;2816;49.778;9.986;2024-02-21T12:38:58;8.37;;;3.47;;
5587;SDS011;2816;49.778;9.986;2024-02-21T12:41:27;7.60;;;2.47;;
5587;SDS011;2816;49.778;9.986;2024-02-21T12:43:55;12.50;;;2.63;;
5587;SDS011;2816;49.778;9.986;2024-02-21T12:46:21;8.30;;;3.23;;
5587;SDS011;2816;49.778;9.986;2024-02-21T12:48:50;8.00;;;2.30;;
5587;SDS011;2816;49.778;9.986;2024-02-21T12:51:17;6.43;;;2.80;;
5587;SDS011;2816;49.778;9.986;2024-02-21T12:53:46;11.73;;;2.67;;
5587;SDS011;2816;49.778;9.986;2024-02-21T12:56:14;14.93;;;3.03;;
5587;SDS011;2816;49.778;9.986;2024-02-21T12:58:41;8.40;;;2.40;;
5587;SDS011;2816;49.778;9.986;2024-02-21T13:01:08;7.47;;;2.77;;
5587;SDS011;2816;49.778;9.986;2024-02-21T13:03:35;5.17;;;2.33;;
5587;SDS011;2816;49.778;9.986;2024-02-21T13:06:04;9.47;;;2.77;;
5587;SDS011;2816;49.778;9.986;2024-02-21T13:08:32;8.97;;;2.70;;
5587;SDS011;2816;49.778;9.986;2024-02-21T13:11:00;8.50;;;2.83;;
5587;SDS011;2816;49.778;9.986;2024-02-21T13:13:27;6.00;;;2.57;;
5587;SDS011;2816;49.778;9.986;2024-02-21T13:15:54;6.90;;;2.30;;
5587;SDS011;2816;49.778;9.986;2024-02-21T13:18:21;12.73;;;2.33;;
5587;SDS011;2816;49.778;9.986;2024-02-21T13:20:49;4.33;;;1.97;;
5587;SDS011;2816;49.778;9.986;2024-02-21T13:23:17;6.53;;;2.03;;
5587;SDS011;2816;49.778;9.986;2024-02-21T13:25:46;2.53;;;1.80;;
5587;SDS011;2816;49.778;9.986;2024-02-21T13:28:14;8.10;;;2.60;;
5587;SDS011;2816;49.778;9.986;2024-02-21T13:30:43;7.87;;;2.83;;
5587;SDS011;2816;49.778;9.986;2024-02-21T13:33:10;9.23;;;2.73;;
5587;SDS011;2816;49.778;9.986;2024-02-21T13:35:37;4.03;;;2.20;;
5587;SDS011;2816;49.778;9.986;2024-02-21T13:38:04;9.23;;;2.67;;
5587;SDS011;2816;49.778;9.986;2024-02-21T13:40:32;6.27;;;2.73;;
5587;SDS011;2816;49.778;9.986;2024-02-21T13:42:59;6.23;;;3.20;;
5587;SDS011;2816;49.778;9.986;2024-02-21T13:45:26;7.20;;;2.60;;
5587;SDS011;2816;49.778;9.986;2024-02-21T13:47:53;6.63;;;2.50;;
5587;SDS011;2816;49.778;9.986;2024-02-21T13:50:20;17.97;;;3.43;;
5587;SDS011;2816;49.778;9.986;2024-02-21T13:52:50;5.87;;;2.43;;
5587;SDS011;2816;49.778;9.986;2024-02-21T13:55:17;10.33;;;3.43;;
5587;SDS011;2816;49.778;9.986;2024-02-21T13:57:48;8.00;;;2.67;;
5587;SDS011;2816;49.778;9.986;2024-02-21T14:00:15;8.00;;;2.93;;
5587;SDS011;2816;49.778;9.986;2024-02-21T14:02:43;6.73;;;2.40;;
5587;SDS011;2816;49.778;9.986;2024-02-21T14:05:10;7.80;;;2.60;;
5587;SDS011;2816;49.778;9.986;2024-02-21T14:07:38;7.37;;;2.30;;
5587;SDS011;2816;49.778;9.986;2024-02-21T14:10:05;5.60;;;2.10;;
5587;SDS011;2816;49.778;9.986;2024-02-21T14:12:34;9.33;;;2.50;;
5587;SDS011;2816;49.778;9.986;2024-02-21T14:15:02;7.70;;;3.33;;
5587;SDS011;2816;49.778;9.986;2024-02-21T14:17:30;5.13;;;2.53;;
5587;SDS011;2816;49.778;9.986;2024-02-21T14:19:57;6.63;;;2.67;;
5587;SDS011;2816;49.778;9.986;2024-02-21T14:22:24;6.73;;;2.70;;
5587;SDS011;2816;49.778;9.986;2024-02-21T14:24:51;6.83;;;2.80;;
5587;SDS011;2816;49.778;9.986;2024-02-21T14:27:18;6.13;;;3.10;;
5587;SDS011;2816;49.778;9.986;2024-02-21T14:29:44;8.03;;;2.53;;
5587;SDS011;2816;49.778;9.986;2024-02-21T14:32:13;10.53;;;3.57;;
5587;SDS011;2816;49.778;9.986;2024-02-21T14:34:40;9.13;;;2.50;;
5587;SDS011;2816;49.778;9.986;2024-02-21T14:37:07;7.33;;;2.80;;
5587;SDS011;2816;49.778;9.986;2024-02-21T14:39:34;9.60;;;2.80;;
5587;SDS011;2816;49.778;9.986;2024-02-21T14:42:01;7.50;;;2.17;;
5587;SDS011;2816;49.778;9.986;2024-02-21T14:44:28;8.17;;;2.60;;
5587;SDS011;2816;49.778;9.986;2024-02-21T14:46:54;6.60;;;2.53;;
5587;SDS011;2816;49.778;9.986;2024-02-21T14:49:24;7.37;;;2.23;;
5587;SDS011;2816;49.778;9.986;2024-02-21T14:51:52;9.43;;;2.90;;
5587;SDS011;2816;49.778;9.986;2024-02-21T14:54:19;10.33;;;2.53;;
5587;SDS011;2816;49.778;9.986;2024-02-21T14:56:46;8.10;;;2.90;;
5587;SDS011;2816;49.778;9.986;2024-02-21T14:59:13;7.13;;;2.03;;
5587;SDS011;2816;49.778;9.986;2024-02-21T15:01:43;6.10;;;1.90;;
5587;SDS011;2816;49.778;9.986;2024-02-21T15:04:09;5.70;;;1.67;;
5587;SDS011;2816;49.778;9.986;2024-02-21T15:06:38;6.70;;;2.30;;
5587;SDS011;2816;49.778;9.986;2024-02-21T15:09:05;5.93;;;1.73;;
5587;SDS011;2816;49.778;9.986;2024-02-21T15:11:32;3.63;;;1.90;;
5587;SDS011;2816;49.778;9.986;2024-02-21T15:13:59;7.00;;;2.20;;
5587;SDS011;2816;49.778;9.986;2024-02-21T15:16:27;4.30;;;2.47;;
5587;SDS011;2816;49.778;9.986;2024-02-21T15:18:53;8.20;;;2.40;;
5587;SDS011;2816;49.778;9.986;2024-02-21T15:21:20;8.73;;;3.10;;
5587;SDS011;2816;49.778;9.986;2024-02-21T15:23:49;8.20;;;2.40;;
5587;SDS011;2816;49.778;9.986;2024-02-21T15:26:16;6.87;;;2.30;;
5587;SDS011;2816;49.778;9.986;2024-02-21T15:28:42;5.50;;;2.60;;
5587;SDS011;2816;49.778;9.986;2024-02-21T15:31:18;6.30;;;2.17;;
5587;SDS011;2816;49.778;9.986;2024-02-21T15:33:49;3.57;;;2.10;;
5587;SDS011;2816;49.778;9.986;2024-02-21T15:36:16;6.53;;;2.30;;
5587;SDS011;2816;49.778;9.986;2024-02-21T15:38:44;3.93;;;2.20;;
5587;SDS011;2816;49.778;9.986;2024-02-21T15:41:13;10.03;;;3.10;;
5587;SDS011;2816;49.778;9.986;2024-02-21T15:43:40;7.87;;;2.23;;
5587;SDS011;2816;49.778;9.986;2024-02-21T15:46:07;8.40;;;2.10;;
5587;SDS011;2816;49.778;9.986;2024-02-21T15:48:37;8.30;;;2.13;;
5587;SDS011;2816;49.778;9.986;2024-02-21T15:51:05;4.90;;;1.80;;
5587;SDS011;2816;49.778;9.986;2024-02-21T15:53:32;6.10;;;2.53;;
5587;SDS011;2816;49.778;9.986;2024-02-21T15:55:59;6.63;;;2.40;;
5587;SDS011;2816;49.778;9.986;2024-02-21T15:58:28;7.70;;;2.40;;
5587;SDS011;2816;49.778;9.986;2024-02-21T16:00:56;6.00;;;2.13;;
5587;SDS011;2816;49.778;9.986;2024-02-21T16:03:23;7.47;;;2.50;;
5587;SDS011;2816;49.778;9.986;2024-02-21T16:05:50;5.20;;;2.07;;
5587;SDS011;2816;49.778;9.986;2024-02-21T16:08:17;4.23;;;2.10;;
5587;SDS011;2816;49.778;9.986;2024-02-21T16:10:44;6.60;;;2.20;;
5587;SDS011;2816;49.778;9.986;2024-02-21T16:13:11;5.20;;;2.20;;
5587;SDS011;2816;49.778;9.986;2024-02-21T16:15:39;4.93;;;2.43;;
5587;SDS011;2816;49.778;9.986;2024-02-21T16:18:07;8.13;;;2.27;;
5587;SDS011;2816;49.778;9.986;2024-02-21T16:20:34;6.90;;;1.80;;
5587;SDS011;2816;49.778;9.986;2024-02-21T16:23:01;6.50;;;2.30;;
5587;SDS011;2816;49.778;9.986;2024-02-21T16:25:30;4.87;;;1.90;;
5587;SDS011;2816;49.778;9.986;2024-02-21T16:27:57;3.77;;;2.10;;
5587;SDS011;2816;49.778;9.986;2024-02-21T16:30:25;5.03;;;1.80;;
5587;SDS011;2816;49.778;9.986;2024-02-21T16:32:53;3.77;;;1.77;;
5587;SDS011;2816;49.778;9.986;2024-02-21T16:35:20;4.00;;;1.80;;
5587;SDS011;2816;49.778;9.986;2024-02-21T16:37:47;3.83;;;1.57;;
5587;SDS011;2816;49.778;9.986;2024-02-21T16:40:16;4.70;;;2.07;;
5587;SDS011;2816;49.778;9.986;2024-02-21T16:42:43;3.07;;;2.13;;
5587;SDS011;2816;49.778;9.986;2024-02-21T16:45:10;6.17;;;1.90;;
5587;SDS011;2816;49.778;9.986;2024-02-21T16:47:37;8.10;;;2.43;;
5587;SDS011;2816;49.778;9.986;2024-02-21T16:50:07;5.23;;;2.40;;
5587;SDS011;2816;49.778;9.986;2024-02-21T16:52:34;4.03;;;2.07;;
5587;SDS011;2816;49.778;9.986;2024-02-21T16:55:01;2.70;;;1.80;;